Time;durP1;ratioP1;P1;durP2;ratioP2;P2;SDS_P1;SDS_P2;PMS_P1;PMS_P2;Temp;Humidity;BMP_temperature;BMP_pressure;BME280_temperature;BME280_humidity;BME280_pressure;Samples;Min_cycle;Max_cycle;Signal;HPM_P1;HPM_P2
2021/07/04 19:17:31;;;;;;;0.60;0.50;;;16.50;99.90;;;;;;5117181;27;1227998;-81
2021/07/04 19:19:58;;;;;;;0.50;0.40;;;16.20;99.90;;;;;;5138753;28;20189;-82
2021/07/04 19:22:25;;;;;;;0.40;0.30;;;16.30;99.90;;;;;;4426910;28;10000733;-82
2021/07/04 19:24:51;;;;;;;0.50;0.50;;;16.40;99.90;;;;;;5117736;28;20187;-82
2021/07/04 19:27:18;;;;;;;0.50;0.40;;;16.50;99.90;;;;;;5098304;28;20434;-82
2021/07/04 19:29:46;;;;;;;0.40;0.30;;;16.50;99.90;;;;;;5100736;28;20942;-82
2021/07/04 19:32:13;;;;;;;0.63;0.63;;;16.60;99.90;;;;;;5100710;28;20495;-82
2021/07/04 19:34:41;;;;;;;0.40;0.40;;;16.60;99.90;;;;;;5100264;28;20463;-82
2021/07/04 19:37:08;;;;;;;0.40;0.30;;;16.60;99.90;;;;;;5108664;28;20466;-83
2021/07/04 19:39:35;;;;;;;0.50;0.40;;;16.60;99.90;;;;;;5120553;28;20438;-82
2021/07/04 19:42:02;;;;;;;0.40;0.30;;;16.70;99.90;;;;;;5119396;28;20443;-82
2021/07/04 19:44:29;;;;;;;0.40;0.30;;;16.60;99.90;;;;;;5119887;28;20449;-82
2021/07/04 19:46:56;;;;;;;16.80;15.50;;;16.60;99.90;;;;;;5120054;28;20455;-82
2021/07/04 19:49:24;;;;;;;0.50;0.30;;;16.60;99.90;;;;;;5120186;28;20929;-82
2021/07/04 19:51:52;;;;;;;0.50;0.40;;;16.60;99.90;;;;;;5120644;28;20472;-79
2021/07/04 19:54:19;;;;;;;0.60;0.60;;;16.60;99.90;;;;;;5120371;28;20453;-82
2021/07/04 19:56:48;;;;;;;0.47;0.37;;;16.50;99.90;;;;;;5118866;28;20480;-80
2021/07/04 19:59:14;;;;;;;0.50;0.50;;;16.50;99.90;;;;;;5118902;28;20442;-82
2021/07/04 20:01:41;;;;;;;0.40;0.30;;;16.50;99.90;;;;;;5118052;28;20815;-81
2021/07/04 20:04:08;;;;;;;0.50;0.43;;;16.50;99.90;;;;;;5118428;28;20435;-82
2021/07/04 20:06:35;;;;;;;0.47;0.30;;;16.40;99.90;;;;;;5113785;28;20453;-82
2021/07/04 20:09:05;;;;;;;0.40;0.30;;;16.30;99.90;;;;;;5115749;28;20548;-82
2021/07/04 20:11:32;;;;;;;0.50;0.40;;;16.30;99.90;;;;;;5118949;28;20435;-82
2021/07/04 20:13:59;;;;;;;1.07;0.80;;;16.20;99.90;;;;;;5118742;28;20437;-82
2021/07/04 20:16:27;;;;;;;0.40;0.30;;;16.20;99.90;;;;;;4765102;28;10000488;-80
2021/07/04 20:18:54;;;;;;;0.50;0.40;;;16.20;99.90;;;;;;5120566;28;20427;-83
2021/07/04 20:21:22;;;;;;;0.50;0.40;;;16.20;99.90;;;;;;5121877;28;20431;-82
2021/07/04 20:23:49;;;;;;;0.50;0.30;;;16.10;99.90;;;;;;5121615;28;20932;-82
2021/07/04 20:26:19;;;;;;;0.50;0.30;;;16.00;99.90;;;;;;5121455;28;20471;-81
2021/07/04 20:28:46;;;;;;;0.50;0.30;;;16.00;99.90;;;;;;5107602;28;20514;-77
2021/07/04 20:31:13;;;;;;;0.50;0.30;;;15.90;99.90;;;;;;5107605;28;20518;-81
2021/07/04 20:33:41;;;;;;;0.43;0.30;;;15.90;99.90;;;;;;5104639;28;20944;-79
2021/07/04 20:36:08;;;;;;;0.50;0.30;;;15.80;99.90;;;;;;5102778;28;20471;-80
2021/07/04 20:38:36;;;;;;;0.50;0.30;;;15.80;99.90;;;;;;5085537;28;20446;-80
2021/07/04 20:41:04;;;;;;;0.40;0.30;;;15.80;99.90;;;;;;5085684;28;20439;-80
2021/07/04 20:43:34;;;;;;;0.47;0.30;;;15.80;99.90;;;;;;5081824;28;20445;-79
2021/07/04 20:46:01;;;;;;;0.50;0.30;;;15.80;99.90;;;;;;5084912;28;20507;-81
2021/07/04 20:48:29;;;;;;;0.50;0.30;;;15.80;99.90;;;;;;5085133;28;20440;-80
2021/07/04 20:50:57;;;;;;;0.50;0.30;;;15.70;99.90;;;;;;5090705;28;20499;-81
2021/07/04 20:53:23;;;;;;;0.50;0.40;;;15.70;99.90;;;;;;5085603;28;20497;-80
2021/07/04 20:55:50;;;;;;;0.50;0.40;;;15.80;99.90;;;;;;5086386;28;20465;-82
2021/07/04 20:58:17;;;;;;;0.50;0.30;;;15.80;99.90;;;;;;5086598;28;20496;-82
2021/07/04 21:00:45;;;;;;;0.50;0.30;;;15.70;99.90;;;;;;5087282;28;20435;-83
2021/07/04 21:03:12;;;;;;;0.50;0.30;;;15.70;99.90;;;;;;5087607;28;20448;-82
2021/07/04 21:05:39;;;;;;;0.40;0.30;;;15.60;99.90;;;;;;5094873;28;20539;-83
2021/07/04 21:08:07;;;;;;;0.47;0.37;;;15.60;99.90;;;;;;5098543;28;20433;-82
2021/07/04 21:10:34;;;;;;;0.40;0.30;;;15.60;99.90;;;;;;5107587;28;20439;-82
2021/07/04 21:13:02;;;;;;;0.83;0.83;;;15.50;99.90;;;;;;5107164;28;20472;-82
2021/07/04 21:15:30;;;;;;;0.50;0.30;;;15.50;99.90;;;;;;5104141;28;20463;-81
2021/07/04 21:17:58;;;;;;;0.50;0.37;;;15.50;99.90;;;;;;5095619;28;21016;-82
2021/07/04 21:20:25;;;;;;;0.40;0.30;;;15.40;99.90;;;;;;5096947;28;20435;-82
2021/07/04 21:22:53;;;;;;;0.40;0.30;;;15.40;99.90;;;;;;5099329;28;20452;-78
2021/07/04 21:25:21;;;;;;;0.40;0.40;;;15.40;99.90;;;;;;5100269;28;20467;-82
2021/07/04 21:27:49;;;;;;;0.50;0.30;;;15.40;99.90;;;;;;5095911;28;20425;-81
2021/07/04 21:30:16;;;;;;;0.40;0.30;;;15.40;99.90;;;;;;5089336;22;20494;-83
2021/07/04 21:32:43;;;;;;;0.40;0.30;;;15.30;99.90;;;;;;5055832;28;20444;-83
2021/07/04 21:35:12;;;;;;;0.40;0.40;;;15.30;99.90;;;;;;5058048;28;20483;-84
2021/07/04 21:37:39;;;;;;;0.50;0.30;;;15.30;99.90;;;;;;5057272;28;20492;-83
2021/07/04 21:40:08;;;;;;;0.50;0.30;;;15.30;99.90;;;;;;5056658;28;20456;-83
2021/07/04 21:42:34;;;;;;;0.40;0.30;;;15.30;99.90;;;;;;5057927;28;20455;-83
2021/07/04 21:45:01;;;;;;;0.40;0.40;;;15.20;99.90;;;;;;5057790;28;20449;-84
2021/07/04 21:47:28;;;;;;;0.50;0.30;;;15.20;99.90;;;;;;5056907;28;20437;-84
2021/07/04 21:49:55;;;;;;;0.40;0.30;;;15.20;99.90;;;;;;5057622;28;20468;-83
2021/07/04 21:52:23;;;;;;;0.40;0.30;;;15.20;99.90;;;;;;5057426;28;20437;-83
2021/07/04 21:54:50;;;;;;;0.47;0.30;;;15.20;99.90;;;;;;5057544;28;20495;-83
2021/07/04 21:57:17;;;;;;;0.50;0.40;;;15.20;99.90;;;;;;5057234;28;21000;-84
2021/07/04 21:59:43;;;;;;;0.40;0.30;;;15.20;99.90;;;;;;5056084;28;20438;-83
2021/07/04 22:02:10;;;;;;;0.50;0.30;;;15.20;99.90;;;;;;5054603;28;20433;-83
2021/07/04 22:04:37;;;;;;;1.13;0.57;;;15.20;99.90;;;;;;5057497;28;20433;-80
2021/07/04 22:07:04;;;;;;;0.50;0.37;;;15.10;99.90;;;;;;5056448;28;20436;-81
2021/07/04 22:09:33;;;;;;;0.50;0.40;;;15.10;99.90;;;;;;5056552;28;20459;-81
2021/07/04 22:12:00;;;;;;;0.50;0.40;;;15.10;99.90;;;;;;5057317;28;20436;-81
2021/07/04 22:14:27;;;;;;;1.57;1.47;;;15.10;99.90;;;;;;5056909;28;20488;-82
2021/07/04 22:16:54;;;;;;;0.50;0.30;;;15.10;99.90;;;;;;5056527;28;20851;-81
2021/07/04 22:19:20;;;;;;;0.40;0.30;;;15.10;99.90;;;;;;5056823;28;20448;-82
2021/07/04 22:21:47;;;;;;;0.40;0.30;;;15.10;99.90;;;;;;5056019;28;20842;-81
2021/07/04 22:24:14;;;;;;;0.50;0.30;;;15.10;99.90;;;;;;5056388;28;20469;-81
2021/07/04 22:26:42;;;;;;;0.67;0.67;;;15.10;99.90;;;;;;5056764;28;20518;-82
2021/07/04 22:29:09;;;;;;;0.40;0.30;;;15.10;99.90;;;;;;5057049;28;20458;-82
2021/07/04 22:31:36;;;;;;;0.40;0.30;;;15.10;99.90;;;;;;5052970;28;20476;-80
2021/07/04 22:34:03;;;;;;;0.40;0.30;;;15.10;99.90;;;;;;5056530;28;20448;-82
2021/07/04 22:36:30;;;;;;;0.40;0.40;;;15.00;99.90;;;;;;5056049;28;21009;-82
2021/07/04 22:38:56;;;;;;;0.50;0.50;;;15.00;99.90;;;;;;5056233;28;21131;-81
2021/07/04 22:41:23;;;;;;;0.40;0.37;;;15.10;99.90;;;;;;5056757;28;20877;-82
2021/07/04 22:43:51;;;;;;;0.50;0.30;;;15.00;99.90;;;;;;5056218;28;20494;-82
2021/07/04 22:46:18;;;;;;;0.40;0.30;;;14.90;99.90;;;;;;5056440;28;20438;-81
2021/07/04 22:48:45;;;;;;;0.70;0.70;;;14.90;99.90;;;;;;5056268;28;20436;-81
2021/07/04 22:51:15;;;;;;;0.60;0.60;;;15.00;99.90;;;;;;5056153;28;20471;-82
2021/07/04 22:53:42;;;;;;;0.40;0.30;;;15.00;99.90;;;;;;5056183;28;20468;-82
2021/07/04 22:56:09;;;;;;;0.50;0.40;;;14.90;99.90;;;;;;5056544;28;20471;-81
2021/07/04 22:58:35;;;;;;;1.17;1.10;;;14.90;99.90;;;;;;5055745;28;20444;-80
2021/07/04 23:01:08;;;;;;;0.50;0.50;;;14.90;99.90;;;;;;5052663;28;20466;-83
2021/07/04 23:03:35;;;;;;;0.40;0.30;;;14.90;99.90;;;;;;5041563;28;20429;-82
2021/07/04 23:06:04;;;;;;;0.40;0.30;;;14.90;99.90;;;;;;5056183;28;20441;-81
2021/07/04 23:08:30;;;;;;;0.40;0.40;;;14.80;99.90;;;;;;5056222;28;20489;-81
2021/07/04 23:10:58;;;;;;;1.00;1.00;;;14.80;99.90;;;;;;5054835;28;20993;-80
2021/07/04 23:13:25;;;;;;;0.40;0.30;;;14.80;99.90;;;;;;5055270;28;20433;-83
2021/07/04 23:15:51;;;;;;;0.40;0.40;;;14.80;99.90;;;;;;5055530;28;20445;-82
2021/07/04 23:18:20;;;;;;;0.40;0.30;;;14.70;99.90;;;;;;5056721;28;20473;-84
2021/07/04 23:20:48;;;;;;;0.40;0.30;;;14.70;99.90;;;;;;5055807;28;20873;-83
2021/07/04 23:23:18;;;;;;;0.40;0.30;;;14.70;99.90;;;;;;5056695;28;20437;-84
2021/07/04 23:25:46;;;;;;;0.70;0.70;;;14.60;99.90;;;;;;5056238;28;20453;-81
2021/07/04 23:28:13;;;;;;;0.40;0.30;;;14.70;99.90;;;;;;5056633;28;20442;-84
2021/07/04 23:30:40;;;;;;;0.40;0.30;;;14.60;99.90;;;;;;5052650;28;21160;-79
2021/07/04 23:33:07;;;;;;;0.40;0.30;;;14.70;99.90;;;;;;5055618;28;20445;-82
2021/07/04 23:35:36;;;;;;;0.40;0.30;;;14.60;99.90;;;;;;5055568;28;20445;-82
2021/07/04 23:38:03;;;;;;;0.50;0.47;;;14.60;99.90;;;;;;5055633;28;20485;-81
2021/07/04 23:40:31;;;;;;;0.40;0.30;;;14.60;99.90;;;;;;5055845;28;20472;-79
2021/07/04 23:42:58;;;;;;;0.40;0.30;;;14.60;99.90;;;;;;5055874;28;20938;-83
2021/07/04 23:45:28;;;;;;;0.40;0.30;;;14.60;99.90;;;;;;5055630;28;20437;-82
2021/07/04 23:47:55;;;;;;;0.50;0.50;;;14.60;99.90;;;;;;5054976;28;20487;-81
2021/07/04 23:50:22;;;;;;;0.40;0.30;;;14.60;99.90;;;;;;5055870;28;20464;-82
2021/07/04 23:52:50;;;;;;;0.50;0.30;;;14.60;99.90;;;;;;5056397;28;20438;-81
2021/07/04 23:55:17;;;;;;;0.40;0.30;;;14.50;99.90;;;;;;5055569;28;20441;-81
2021/07/04 23:57:44;;;;;;;0.40;0.30;;;14.50;99.90;;;;;;5055590;28;20504;-82
